Terminal Aerodrome Forecast
Issued by NWS Glasgow, MT

Home | Current Version | Previous Version | Text Only | Print | Product List | Glossary On
Versions: 1 2 3 4 5 6 7 8 9 10 11 12 13 14
000
FTUS45 KGGW 282320
TAFGGW
TAF
KGGW 282320Z 2900/2924 34018G28KT P6SM FEW100
     FM290200 35015KT P6SM SKC
     FM290400 34009KT P6SM SKC
     FM291800 33013KT P6SM SKC=

USA.gov is the U.S. government's official web portal to all federal, state and local government web resources and services.